Terminal Aerodrome Forecast
Issued by NWS Grand Forks, ND

Home | Current Version | Previous Version | Text Only | Print | Product List | Glossary Off
Versions: 1 2 3 4 5 6 7 8 9 10 11 12 13 14 15 16 17 18 19 20 21 22

118
FTUS43 KFGF 071733
TAFFAR
TAF
KFAR 071733Z 0718/0818 30021G27KT 4SM -SN BKN020
     FM071900 33033G42KT 2SM -SN BLSN BKN010
      TEMPO 0719/0721 3/4SM -SN BLSN
     FM080400 34025G32KT 4SM -SN BLSN BKN020
     FM081200 34026G33KT P6SM BKN025=

USA.gov is the U.S. government's official web portal to all federal, state and local government web resources and services.